createdAt,value
2022-09-07T00:01:04.865Z,26.21
2022-09-07T00:03:32.148Z,26.15
2022-09-07T00:05:59.934Z,26.09
2022-09-07T00:08:28.041Z,26.06
2022-09-07T00:11:01.939Z,26.04
2022-09-07T00:13:33.759Z,26.04
2022-09-07T00:16:12.614Z,26.07
2022-09-07T00:18:45.223Z,26.07
2022-09-07T00:21:14.192Z,25.99
2022-09-07T00:23:41.322Z,25.99
2022-09-07T00:26:17.596Z,25.99
2022-09-07T00:28:45.230Z,25.94
2022-09-07T00:31:24.624Z,25.85
2022-09-07T00:33:53.789Z,25.77
2022-09-07T00:36:22.070Z,25.72
2022-09-07T00:38:49.647Z,25.68
2022-09-07T00:41:18.320Z,25.67
2022-09-07T00:43:55.389Z,25.68
2022-09-07T00:46:32.310Z,25.66
2022-09-07T00:49:10.364Z,25.62
2022-09-07T00:51:50.945Z,25.59
2022-09-07T00:54:42.313Z,25.56
2022-09-07T00:57:09.876Z,25.57
2022-09-07T00:59:43.380Z,25.59
2022-09-07T01:02:12.311Z,25.59
2022-09-07T01:04:39.803Z,25.56
2022-09-07T01:07:07.060Z,25.46
2022-09-07T01:09:35.381Z,25.44
2022-09-07T01:12:03.491Z,25.44
2022-09-07T01:14:40.426Z,25.33
2022-09-07T01:17:16.630Z,25.27
2022-09-07T01:20:43.943Z,25.28
2022-09-07T01:23:50.330Z,25.26
2022-09-07T01:27:02.287Z,25.21
2022-09-07T01:29:52.606Z,25.19
2022-09-07T01:32:28.561Z,25.15
2022-09-07T01:34:55.662Z,25.18
2022-09-07T01:37:40.623Z,25.20
2022-09-07T01:41:05.792Z,25.23
2022-09-07T01:43:43.382Z,25.17
2022-09-07T01:46:42.226Z,25.21
2022-09-07T01:49:21.343Z,25.24
2022-09-07T01:51:54.652Z,25.23
2022-09-07T01:54:33.888Z,25.18
2022-09-07T01:57:10.381Z,25.14
2022-09-07T01:59:44.643Z,25.09
2022-09-07T02:02:19.762Z,25.08
2022-09-07T02:05:07.478Z,25.10
2022-09-07T02:07:53.512Z,25.10
2022-09-07T02:10:28.877Z,25.07
2022-09-07T02:13:08.188Z,25.04
2022-09-07T02:16:03.354Z,24.99
2022-09-07T02:18:37.511Z,25.00
2022-09-07T02:21:07.852Z,25.02
2022-09-07T02:23:44.196Z,25.01
2022-09-07T02:26:18.299Z,25.01
2022-09-07T02:28:45.716Z,25.00
2022-09-07T02:31:13.567Z,24.96
2022-09-07T02:33:41.949Z,24.89
2022-09-07T02:36:09.978Z,24.87
2022-09-07T02:38:37.157Z,24.84
2022-09-07T02:41:05.086Z,24.78
2022-09-07T02:43:32.736Z,24.72
2022-09-07T02:46:46.279Z,24.68
2022-09-07T02:50:14.832Z,24.64
2022-09-07T02:53:38.701Z,24.56
2022-09-07T02:56:34.459Z,24.51
2022-09-07T03:02:25.737Z,24.51
2022-09-07T03:05:32.342Z,24.47
2022-09-07T03:08:05.549Z,24.46
2022-09-07T03:10:33.298Z,24.43
2022-09-07T03:13:00.233Z,24.43
2022-09-07T03:15:28.297Z,24.43
2022-09-07T03:17:55.400Z,24.43
2022-09-07T03:20:23.422Z,24.41
2022-09-07T03:22:52.249Z,24.38
2022-09-07T03:25:19.891Z,24.34
2022-09-07T03:27:46.977Z,24.33
2022-09-07T03:30:14.571Z,24.32
2022-09-07T03:32:42.147Z,24.31
2022-09-07T03:35:10.220Z,24.31
2022-09-07T03:37:38.457Z,24.32
2022-09-07T03:40:09.962Z,24.33
2022-09-07T03:42:37.523Z,24.33
2022-09-07T03:45:07.163Z,24.33
2022-09-07T03:47:37.833Z,24.35
2022-09-07T03:50:06.125Z,24.35
2022-09-07T03:52:35.221Z,24.35
2022-09-07T03:55:02.295Z,24.35
2022-09-07T03:57:29.277Z,24.36
2022-09-07T03:59:56.246Z,24.37
2022-09-07T04:02:23.240Z,24.34
2022-09-07T04:04:50.283Z,24.30
2022-09-07T04:07:17.341Z,24.27
2022-09-07T04:09:44.362Z,24.23
2022-09-07T04:12:11.343Z,24.23
2022-09-07T04:14:38.263Z,24.21
2022-09-07T04:17:05.576Z,24.18
2022-09-07T04:19:32.522Z,24.16
2022-09-07T04:21:59.718Z,24.15
2022-09-07T04:24:26.801Z,24.10
2022-09-07T04:26:53.691Z,24.06
2022-09-07T04:29:20.656Z,24.03
2022-09-07T04:31:47.786Z,24.01
2022-09-07T04:34:14.978Z,23.99
2022-09-07T04:36:42.107Z,24.01
2022-09-07T04:39:11.397Z,24.01
2022-09-07T04:41:38.325Z,24.02
2022-09-07T04:44:05.404Z,24.00
2022-09-07T04:46:37.521Z,23.98
2022-09-07T04:49:08.526Z,23.98
2022-09-07T04:51:36.833Z,23.94
2022-09-07T04:54:04.545Z,23.91
2022-09-07T04:56:33.677Z,23.88
2022-09-07T04:59:03.084Z,23.87
2022-09-07T05:01:31.401Z,23.84
2022-09-07T05:04:03.532Z,23.84
2022-09-07T05:06:31.107Z,23.83
2022-09-07T05:08:59.180Z,23.84
2022-09-07T05:11:29.403Z,23.83
2022-09-07T05:13:59.105Z,23.85
2022-09-07T05:16:27.509Z,23.88
2022-09-07T05:18:58.175Z,23.90
2022-09-07T05:21:28.646Z,23.92
2022-09-07T05:23:58.089Z,23.95
2022-09-07T05:26:29.347Z,23.97
2022-09-07T05:31:43.703Z,24.03
2022-09-07T05:36:58.059Z,24.08
2022-09-07T05:39:25.393Z,24.10
2022-09-07T05:41:52.586Z,24.10
2022-09-07T05:47:07.513Z,24.12
2022-09-07T05:49:34.673Z,24.13
2022-09-07T05:52:01.732Z,24.14
2022-09-07T05:54:28.851Z,24.15
2022-09-07T05:56:55.896Z,24.15
2022-09-07T05:59:22.954Z,24.17
2022-09-07T06:01:50.719Z,24.17
2022-09-07T06:04:18.208Z,24.17
2022-09-07T06:06:59.160Z,24.17
2022-09-07T06:09:31.830Z,24.19
2022-09-07T06:11:58.934Z,24.20
2022-09-07T06:14:25.907Z,24.23
2022-09-07T06:16:53.751Z,24.26
2022-09-07T06:19:21.385Z,24.30
2022-09-07T06:21:48.797Z,24.35
2022-09-07T06:24:15.938Z,24.40
2022-09-07T06:26:43.118Z,24.45
2022-09-07T06:29:10.560Z,24.49
2022-09-07T06:34:26.418Z,24.56
2022-09-07T06:36:53.359Z,24.59
2022-09-07T06:39:20.350Z,24.59
2022-09-07T06:42:02.584Z,24.63
2022-09-07T06:44:31.640Z,24.65
2022-09-07T06:49:26.983Z,24.73
2022-09-07T06:51:53.963Z,24.77
2022-09-07T06:57:10.863Z,24.85
2022-09-07T06:59:38.598Z,24.87
2022-09-07T07:02:06.865Z,24.88
2022-09-07T07:04:39.501Z,24.91
2022-09-07T07:07:13.707Z,24.96
2022-09-07T07:09:41.946Z,24.99
2022-09-07T07:12:10.710Z,25.04
2022-09-07T07:14:40.978Z,25.07
2022-09-07T07:17:11.194Z,25.09
2022-09-07T07:19:38.625Z,25.13
2022-09-07T07:24:53.202Z,25.18
2022-09-07T07:27:22.303Z,25.24
2022-09-07T07:29:49.984Z,25.27
2022-09-07T07:32:17.426Z,25.28
2022-09-07T07:34:44.831Z,25.33
2022-09-07T07:37:11.854Z,25.39
2022-09-07T07:42:26.342Z,25.53
2022-09-07T07:47:40.273Z,25.67
2022-09-07T07:55:43.817Z,25.73
2022-09-07T07:58:11.011Z,25.74
2022-09-07T08:00:53.788Z,25.73
2022-09-07T08:03:23.171Z,25.72
2022-09-07T08:05:50.406Z,25.73
2022-09-07T08:08:17.419Z,25.73
2022-09-07T08:10:46.037Z,25.73
2022-09-07T08:13:13.290Z,25.74
2022-09-07T08:15:46.364Z,25.74
2022-09-07T08:18:16.689Z,25.73
2022-09-07T08:20:43.924Z,25.74
2022-09-07T08:23:11.615Z,25.76
2022-09-07T08:25:38.707Z,25.74
2022-09-07T08:28:06.572Z,25.75
2022-09-07T08:30:33.535Z,25.75
2022-09-07T08:33:00.525Z,25.75
2022-09-07T08:35:27.619Z,25.76
2022-09-07T08:37:54.648Z,25.75
2022-09-07T08:40:25.563Z,25.75
2022-09-07T08:43:08.393Z,25.68
2022-09-07T08:45:41.800Z,25.71
2022-09-07T08:48:15.171Z,25.72
2022-09-07T08:50:53.954Z,25.73
2022-09-07T08:53:23.080Z,25.72
2022-09-07T08:55:57.062Z,25.70
2022-09-07T08:58:49.814Z,25.67
2022-09-07T09:01:41.595Z,25.68
2022-09-07T09:04:25.658Z,25.69
2022-09-07T09:07:29.933Z,25.72
2022-09-07T09:10:30.532Z,25.76
2022-09-07T09:13:09.681Z,25.79
2022-09-07T09:15:53.261Z,25.80
2022-09-07T09:18:42.482Z,25.82
2022-09-07T09:21:18.816Z,25.87
2022-09-07T09:23:50.090Z,25.88
2022-09-07T09:26:26.871Z,25.93
2022-09-07T09:28:55.160Z,25.95
2022-09-07T09:31:26.806Z,26.03
2022-09-07T09:34:09.660Z,25.99
2022-09-07T09:36:44.418Z,26.01
2022-09-07T09:39:38.044Z,26.05
2022-09-07T09:42:11.460Z,26.07
2022-09-07T09:44:39.484Z,26.10
2022-09-07T09:49:54.446Z,26.16
2022-09-07T09:52:29.708Z,26.19
2022-09-07T09:55:17.236Z,26.15
2022-09-07T10:01:21.223Z,26.16
2022-09-07T10:06:18.982Z,26.18
2022-09-07T10:09:04.197Z,26.19
2022-09-07T10:14:45.458Z,26.23
2022-09-07T10:17:35.864Z,26.28
2022-09-07T10:20:37.540Z,26.30
2022-09-07T10:23:06.816Z,26.33
2022-09-07T10:25:44.232Z,26.38
2022-09-07T10:28:14.390Z,26.39
2022-09-07T10:31:13.927Z,26.40
2022-09-07T10:34:27.477Z,26.35
2022-09-07T10:37:05.849Z,26.38
2022-09-07T10:39:43.633Z,26.42
2022-09-07T10:42:29.234Z,26.43
2022-09-07T10:45:17.178Z,26.38
2022-09-07T10:47:57.536Z,26.44
2022-09-07T10:50:39.665Z,26.49
2022-09-07T10:53:40.116Z,26.50
2022-09-07T10:56:26.209Z,26.46
2022-09-07T11:03:28.132Z,26.64
2022-09-07T11:06:16.599Z,26.69
2022-09-07T11:09:36.756Z,26.68
2022-09-07T11:12:09.768Z,26.65
2022-09-07T11:14:45.352Z,26.71
2022-09-07T11:17:25.612Z,26.77
2022-09-07T11:20:12.120Z,26.84
2022-09-07T11:22:43.398Z,26.88
2022-09-07T11:25:32.645Z,26.96
2022-09-07T11:28:12.635Z,26.99
2022-09-07T11:31:00.322Z,26.99
2022-09-07T11:33:42.149Z,26.98
2022-09-07T11:36:15.942Z,27.08
2022-09-07T11:38:54.430Z,27.08
2022-09-07T11:41:38.607Z,27.15
2022-09-07T11:44:43.699Z,27.26
2022-09-07T11:47:29.615Z,27.32
2022-09-07T11:49:59.340Z,27.40
2022-09-07T11:52:40.136Z,27.48
2022-09-07T11:55:25.366Z,27.58
2022-09-07T11:58:44.468Z,27.74
2022-09-07T12:01:45.223Z,27.91
2022-09-07T12:04:46.861Z,28.02
2022-09-07T12:07:33.609Z,28.14
2022-09-07T12:10:42.128Z,28.29
2022-09-07T12:13:46.316Z,28.25
2022-09-07T12:16:34.834Z,28.21
2022-09-07T12:19:02.170Z,28.26
2022-09-07T12:22:03.589Z,28.35
2022-09-07T12:24:45.978Z,28.46
2022-09-07T12:27:33.678Z,28.47
2022-09-07T12:30:03.713Z,28.53
2022-09-07T12:32:58.229Z,28.55
2022-09-07T12:35:28.535Z,28.68
2022-09-07T12:41:41.061Z,28.89
2022-09-07T12:44:17.503Z,29.02
2022-09-07T12:46:48.467Z,29.11
2022-09-07T12:49:52.778Z,29.22
2022-09-07T12:52:45.616Z,29.19
2022-09-07T12:58:34.846Z,29.19
2022-09-07T13:01:15.504Z,29.16
2022-09-07T13:03:52.413Z,29.20
2022-09-07T13:07:02.428Z,29.20
2022-09-07T13:09:38.157Z,29.20
2022-09-07T13:16:06.435Z,29.32
2022-09-07T13:18:37.703Z,29.45
2022-09-07T13:21:07.893Z,29.56
2022-09-07T13:23:51.375Z,29.61
2022-09-07T13:26:55.161Z,29.59
2022-09-07T13:29:46.425Z,29.59
2022-09-07T13:35:24.150Z,29.55
2022-09-07T13:38:02.362Z,29.48
2022-09-07T13:40:34.345Z,29.47
2022-09-07T13:43:04.659Z,29.48
2022-09-07T13:45:55.694Z,29.51
2022-09-07T13:48:58.346Z,29.56
2022-09-07T13:51:38.334Z,29.66
2022-09-07T13:54:14.130Z,29.77
2022-09-07T13:56:55.729Z,29.89
2022-09-07T13:59:27.685Z,29.98
2022-09-07T14:01:57.221Z,30.04
2022-09-07T14:04:35.637Z,30.11
2022-09-07T14:07:13.914Z,30.14
2022-09-07T14:09:41.313Z,30.17
2022-09-07T14:12:20.897Z,30.25
2022-09-07T14:15:25.599Z,30.39
2022-09-07T14:18:03.979Z,30.47
2022-09-07T14:20:32.580Z,30.57
2022-09-07T14:23:00.286Z,30.68
2022-09-07T14:25:27.734Z,30.64
2022-09-07T14:27:56.323Z,30.68
2022-09-07T14:30:32.071Z,30.68
2022-09-07T14:33:17.333Z,30.70
2022-09-07T14:35:44.438Z,30.76
2022-09-07T14:41:21.427Z,30.71
2022-09-07T14:43:55.251Z,30.72
2022-09-07T14:46:30.130Z,30.71
2022-09-07T14:49:04.291Z,30.58
2022-09-07T14:51:36.436Z,30.50
2022-09-07T14:54:08.050Z,30.44
2022-09-07T14:56:40.908Z,30.38
2022-09-07T14:59:43.524Z,30.36
2022-09-07T15:02:22.136Z,30.37
2022-09-07T15:05:24.009Z,30.32
2022-09-07T15:08:00.911Z,30.28
2022-09-07T15:13:36.946Z,30.22
2022-09-07T15:16:07.423Z,30.20
2022-09-07T15:19:02.474Z,30.19
2022-09-07T15:21:36.625Z,30.15
2022-09-07T15:24:04.057Z,30.13
2022-09-07T15:29:28.575Z,30.10
2022-09-07T15:32:03.496Z,30.09
2022-09-07T15:34:32.476Z,30.06
2022-09-07T15:37:00.877Z,30.02
2022-09-07T15:39:29.884Z,30.00
2022-09-07T15:41:59.042Z,29.98
2022-09-07T15:44:28.611Z,29.95
2022-09-07T15:49:49.490Z,29.94
2022-09-07T15:52:18.243Z,29.92
2022-09-07T15:54:45.363Z,29.93
2022-09-07T15:59:59.525Z,29.91
2022-09-07T16:05:13.796Z,29.87
2022-09-07T16:10:31.610Z,29.80
2022-09-07T16:13:01.836Z,29.78
2022-09-07T16:15:31.496Z,29.74
2022-09-07T16:17:59.119Z,29.71
2022-09-07T16:20:32.038Z,29.70
2022-09-07T16:23:16.256Z,29.66
2022-09-07T16:25:58.413Z,29.61
2022-09-07T16:28:26.306Z,29.59
2022-09-07T16:30:54.236Z,29.57
2022-09-07T16:33:21.401Z,29.53
2022-09-07T16:36:04.301Z,29.51
2022-09-07T16:38:47.580Z,29.47
2022-09-07T16:41:26.662Z,29.44
2022-09-07T16:43:54.783Z,29.43
2022-09-07T16:46:26.304Z,29.37
2022-09-07T16:48:54.261Z,29.33
2022-09-07T16:51:22.954Z,29.32
2022-09-07T16:53:53.292Z,29.30
2022-09-07T16:56:24.391Z,29.29
2022-09-07T16:58:56.008Z,29.26
2022-09-07T17:01:27.957Z,29.24
2022-09-07T17:03:56.598Z,29.22
2022-09-07T17:06:27.294Z,29.19
2022-09-07T17:08:55.172Z,29.18
2022-09-07T17:11:26.479Z,29.17
2022-09-07T17:13:54.048Z,29.13
2022-09-07T17:16:28.224Z,29.12
2022-09-07T17:21:43.311Z,29.06
2022-09-07T17:24:11.885Z,29.05
2022-09-07T17:26:42.243Z,29.02
2022-09-07T17:29:09.746Z,28.99
2022-09-07T17:34:25.551Z,28.93
2022-09-07T17:36:52.757Z,28.90
2022-09-07T17:39:19.983Z,28.89
2022-09-07T17:41:49.314Z,28.86
2022-09-07T17:44:16.335Z,28.85
2022-09-07T17:46:43.535Z,28.82
2022-09-07T17:49:16.632Z,28.76
2022-09-07T17:51:45.015Z,28.69
2022-09-07T17:54:17.322Z,28.70
2022-09-07T17:56:45.272Z,28.65
2022-09-07T18:01:59.907Z,28.59
2022-09-07T18:04:28.205Z,28.57
2022-09-07T18:06:55.575Z,28.55
2022-09-07T18:09:22.815Z,28.50
2022-09-07T18:11:50.495Z,28.48
2022-09-07T18:14:19.053Z,28.45
2022-09-07T18:16:49.302Z,28.41
2022-09-07T18:19:18.300Z,28.38
2022-09-07T18:21:45.716Z,28.34
2022-09-07T18:24:17.837Z,28.31
2022-09-07T18:26:50.891Z,28.26
2022-09-07T18:29:29.329Z,28.23
2022-09-07T18:31:58.937Z,28.19
2022-09-07T18:34:26.263Z,28.18
2022-09-07T18:36:53.849Z,28.17
2022-09-07T18:39:23.073Z,28.16
2022-09-07T18:41:50.314Z,28.13
2022-09-07T18:47:06.319Z,28.10
2022-09-07T18:49:33.223Z,28.09
2022-09-07T18:54:47.310Z,28.08
2022-09-07T18:57:15.497Z,28.07
2022-09-07T18:59:42.559Z,28.08
2022-09-07T19:02:10.801Z,28.07
2022-09-07T19:07:29.542Z,28.07
2022-09-07T19:09:57.834Z,28.07
2022-09-07T19:12:24.927Z,28.07
2022-09-07T19:14:51.859Z,28.07
2022-09-07T19:17:19.387Z,28.09
2022-09-07T19:19:46.379Z,28.08
2022-09-07T19:22:13.294Z,28.05
2022-09-07T19:24:40.167Z,28.06
2022-09-07T19:27:07.585Z,28.05
2022-09-07T19:29:34.689Z,28.06
2022-09-07T19:32:05.416Z,28.07
2022-09-07T19:34:42.158Z,28.05
2022-09-07T19:37:11.712Z,28.05
2022-09-07T19:39:38.891Z,28.03
2022-09-07T19:42:07.798Z,28.02
2022-09-07T19:44:35.111Z,28.03
2022-09-07T19:47:02.150Z,28.00
2022-09-07T19:49:30.259Z,27.98
2022-09-07T19:51:57.210Z,27.96
2022-09-07T19:54:24.466Z,27.94
2022-09-07T19:56:51.404Z,27.93
2022-09-07T19:59:19.587Z,27.93
2022-09-07T20:01:48.470Z,27.91
2022-09-07T20:04:20.622Z,27.89
2022-09-07T20:06:50.242Z,27.88
2022-09-07T20:09:19.956Z,27.86
2022-09-07T20:11:48.182Z,27.85
2022-09-07T20:14:16.728Z,27.83
2022-09-07T20:16:43.976Z,27.82
2022-09-07T20:19:14.621Z,27.78
2022-09-07T20:21:43.057Z,27.76
2022-09-07T20:24:14.443Z,27.73
2022-09-07T20:26:41.736Z,27.72
2022-09-07T20:29:26.902Z,27.70
2022-09-07T20:31:57.680Z,27.65
2022-09-07T20:34:25.880Z,27.64
2022-09-07T20:36:53.199Z,27.63
2022-09-07T20:39:21.349Z,27.62
2022-09-07T20:41:48.492Z,27.60
2022-09-07T20:44:15.887Z,27.61
2022-09-07T20:46:43.642Z,27.59
2022-09-07T20:49:11.163Z,27.58
2022-09-07T20:51:38.851Z,27.56
2022-09-07T20:54:07.079Z,27.55
2022-09-07T20:56:33.994Z,27.55
2022-09-07T20:59:03.623Z,27.56
2022-09-07T21:01:35.872Z,27.56
2022-09-07T21:04:04.163Z,27.56
2022-09-07T21:06:32.018Z,27.53
2022-09-07T21:09:02.859Z,27.53
2022-09-07T21:11:35.425Z,27.51
2022-09-07T21:14:10.290Z,27.50
2022-09-07T21:16:38.012Z,27.49
2022-09-07T21:19:10.938Z,27.47
2022-09-07T21:21:41.800Z,27.45
2022-09-07T21:24:19.692Z,27.44
2022-09-07T21:26:49.027Z,27.44
2022-09-07T21:29:22.956Z,27.42
2022-09-07T21:31:53.114Z,27.40
2022-09-07T21:34:21.363Z,27.40
2022-09-07T21:36:48.286Z,27.37
2022-09-07T21:39:16.335Z,27.35
2022-09-07T21:41:45.208Z,27.33
2022-09-07T21:44:15.736Z,27.29
2022-09-07T21:46:44.046Z,27.29
2022-09-07T21:49:11.784Z,27.28
2022-09-07T21:51:38.875Z,27.27
2022-09-07T21:54:06.125Z,27.27
2022-09-07T21:56:33.217Z,27.26
2022-09-07T21:59:01.997Z,27.23
2022-09-07T22:01:30.772Z,27.22
2022-09-07T22:04:04.042Z,27.21
2022-09-07T22:06:32.421Z,27.17
2022-09-07T22:09:01.983Z,27.18
2022-09-07T22:11:29.822Z,27.16
2022-09-07T22:14:00.482Z,27.15
2022-09-07T22:16:27.720Z,27.14
2022-09-07T22:18:55.069Z,27.13
2022-09-07T22:21:27.890Z,27.11
2022-09-07T22:23:58.352Z,27.10
2022-09-07T22:26:28.636Z,27.09
2022-09-07T22:28:56.147Z,27.07
2022-09-07T22:31:33.649Z,27.05
2022-09-07T22:34:04.721Z,27.02
2022-09-07T22:36:44.260Z,27.02
2022-09-07T22:39:15.898Z,26.98
2022-09-07T22:41:44.079Z,26.95
2022-09-07T22:44:14.928Z,26.94
2022-09-07T22:46:43.719Z,26.92
2022-09-07T22:49:16.209Z,26.91
2022-09-07T22:51:43.907Z,26.88
2022-09-07T22:54:11.209Z,26.87
2022-09-07T22:56:39.652Z,26.85
2022-09-07T22:59:09.029Z,26.80
2022-09-07T23:01:37.246Z,26.78
2022-09-07T23:04:06.167Z,26.74
2022-09-07T23:06:42.018Z,26.71
2022-09-07T23:09:16.556Z,26.66
2022-09-07T23:11:45.896Z,26.65
2022-09-07T23:14:22.052Z,26.62
2022-09-07T23:16:49.666Z,26.56
2022-09-07T23:19:18.565Z,26.55
2022-09-07T23:21:46.142Z,26.48
2022-09-07T23:24:17.272Z,26.42
2022-09-07T23:26:44.719Z,26.40
2022-09-07T23:29:13.783Z,26.37
2022-09-07T23:31:42.182Z,26.33
2022-09-07T23:34:09.745Z,26.31
2022-09-07T23:36:37.408Z,26.26
2022-09-07T23:39:04.899Z,26.25
2022-09-07T23:41:31.955Z,26.23
2022-09-07T23:43:59.053Z,26.20
2022-09-07T23:46:26.332Z,26.20
2022-09-07T23:48:53.469Z,26.17
2022-09-07T23:51:24.202Z,26.15
2022-09-07T23:53:52.945Z,26.14
2022-09-07T23:56:21.241Z,26.12
2022-09-07T23:58:48.139Z,26.04
